createdAt,value
2019-03-09T00:00:43.796Z,100714.64
2019-03-09T00:03:18.289Z,100713.34
2019-03-09T00:05:51.433Z,100715.94
2019-03-09T00:08:24.501Z,100713.83
2019-03-09T00:10:57.812Z,100715.99
2019-03-09T00:13:30.781Z,100717.30
2019-03-09T00:16:03.960Z,100711.34
2019-03-09T00:18:36.892Z,100707.39
2019-03-09T00:21:10.254Z,100715.08
2019-03-09T00:24:06.285Z,100709.44
2019-03-09T00:26:47.888Z,100705.05
2019-03-09T00:29:32.397Z,100715.34
2019-03-09T00:32:11.723Z,100709.76
2019-03-09T00:34:47.320Z,100706.66
2019-03-09T00:37:27.962Z,100703.64
2019-03-09T00:40:04.298Z,100703.75
2019-03-09T00:42:39.344Z,100701.64
2019-03-09T00:45:15.904Z,100696.06
2019-03-09T00:47:48.806Z,100689.14
2019-03-09T00:50:21.738Z,100682.25
2019-03-09T00:52:58.073Z,100674.45
2019-03-09T00:55:31.314Z,100665.30
2019-03-09T00:58:05.135Z,100670.94
2019-03-09T01:00:43.051Z,100675.20
2019-03-09T01:03:17.346Z,100681.55
2019-03-09T01:05:50.743Z,100682.95
2019-03-09T01:08:23.787Z,100685.73
2019-03-09T01:10:58.180Z,100675.44
2019-03-09T01:13:32.700Z,100670.47
2019-03-09T01:16:08.446Z,100670.55
2019-03-09T01:18:44.343Z,100664.21
2019-03-09T01:21:19.377Z,100667.13
2019-03-09T01:23:59.548Z,100662.86
2019-03-09T01:26:35.871Z,100657.22
2019-03-09T01:29:11.028Z,100652.52
2019-03-09T01:31:45.753Z,100646.90
2019-03-09T01:34:18.928Z,100646.07
2019-03-09T01:36:54.228Z,100647.76
2019-03-09T01:39:31.189Z,100647.70
2019-03-09T01:42:04.102Z,100635.94
2019-03-09T01:44:38.481Z,100632.80
2019-03-09T01:47:20.531Z,100628.84
2019-03-09T01:49:53.327Z,100635.78
2019-03-09T01:52:26.273Z,100634.97
2019-03-09T01:55:08.393Z,100633.78
2019-03-09T01:57:44.581Z,100640.77
2019-03-09T02:00:18.696Z,100630.42
2019-03-09T02:02:51.706Z,100617.56
2019-03-09T02:05:28.871Z,100611.98
2019-03-09T02:08:01.832Z,100610.75
2019-03-09T02:10:36.579Z,100609.56
2019-03-09T02:13:12.372Z,100602.58
2019-03-09T02:15:45.320Z,100598.67
2019-03-09T02:18:25.377Z,100591.19
2019-03-09T02:21:05.896Z,100595.42
2019-03-09T02:23:38.803Z,100590.22
2019-03-09T02:26:11.738Z,100582.96
2019-03-09T02:28:44.642Z,100582.48
2019-03-09T02:31:17.498Z,100575.94
2019-03-09T02:33:50.388Z,100573.31
2019-03-09T02:36:23.509Z,100573.27
2019-03-09T02:39:00.591Z,100570.11
2019-03-09T02:41:35.112Z,100562.57
2019-03-09T02:44:08.016Z,100556.02
2019-03-09T02:46:40.764Z,100547.67
2019-03-09T02:49:13.574Z,100543.58
2019-03-09T02:51:46.669Z,100540.98
2019-03-09T02:54:19.482Z,100540.48
2019-03-09T02:56:52.280Z,100534.78
2019-03-09T02:59:25.601Z,100531.69
2019-03-09T03:02:13.913Z,100531.24
2019-03-09T03:04:46.985Z,100519.19
2019-03-09T03:07:19.747Z,100528.64
2019-03-09T03:09:54.194Z,100516.09
2019-03-09T03:12:27.064Z,100510.47
2019-03-09T03:15:00.079Z,100502.09
2019-03-09T03:17:33.169Z,100497.22
2019-03-09T03:20:07.370Z,100491.37
2019-03-09T03:22:40.292Z,100482.21
2019-03-09T03:25:13.447Z,100481.59
2019-03-09T03:27:46.539Z,100479.77
2019-03-09T03:30:19.682Z,100472.22
2019-03-09T03:32:54.272Z,100478.16
2019-03-09T03:35:27.292Z,100453.52
2019-03-09T03:38:00.049Z,100470.77
2019-03-09T03:40:33.218Z,100460.55
2019-03-09T03:43:06.176Z,100462.20
2019-03-09T03:45:44.605Z,100453.83
2019-03-09T03:48:17.391Z,100447.55
2019-03-09T03:50:50.214Z,100447.33
2019-03-09T03:53:23.099Z,100441.84
2019-03-09T03:55:56.251Z,100436.45
2019-03-09T03:58:29.069Z,100432.83
2019-03-09T04:01:01.965Z,100436.23
2019-03-09T04:03:34.936Z,100434.35
2019-03-09T04:06:08.027Z,100432.45
2019-03-09T04:08:41.455Z,100431.45
2019-03-09T04:11:14.407Z,100429.14
2019-03-09T04:13:47.738Z,100422.98
2019-03-09T04:16:20.564Z,100421.20
2019-03-09T04:18:53.579Z,100418.88
2019-03-09T04:21:26.478Z,100409.66
2019-03-09T04:23:59.419Z,100403.47
2019-03-09T04:26:32.615Z,100392.88
2019-03-09T04:29:06.398Z,100377.09
2019-03-09T04:31:39.305Z,100379.83
2019-03-09T04:34:12.215Z,100375.99
2019-03-09T04:36:45.233Z,100369.10
2019-03-09T04:39:18.184Z,100362.34
2019-03-09T04:41:55.208Z,100359.63
2019-03-09T04:44:28.166Z,100355.65
2019-03-09T04:47:01.717Z,100365.08
2019-03-09T04:49:34.680Z,100354.28
2019-03-09T04:52:07.604Z,100354.34
2019-03-09T04:54:40.527Z,100350.95
2019-03-09T04:57:13.255Z,100350.95
2019-03-09T04:59:46.224Z,100348.35
2019-03-09T05:02:19.169Z,100359.66
2019-03-09T05:04:54.061Z,100354.66
2019-03-09T05:07:42.631Z,100352.51
2019-03-09T05:10:30.018Z,100357.17
2019-03-09T05:13:10.737Z,100343.44
2019-03-09T05:15:43.543Z,100341.86
2019-03-09T05:18:16.495Z,100335.42
2019-03-09T05:20:49.430Z,100325.41
2019-03-09T05:23:22.292Z,100316.81
2019-03-09T05:25:55.346Z,100303.20
2019-03-09T05:28:28.285Z,100303.31
2019-03-09T05:31:01.228Z,100309.38
2019-03-09T05:33:34.069Z,100302.01
2019-03-09T05:36:06.998Z,100293.55
2019-03-09T05:38:40.319Z,100284.09
2019-03-09T05:41:16.364Z,100272.07
2019-03-09T05:43:49.330Z,100269.40
2019-03-09T05:46:22.359Z,100260.36
2019-03-09T05:48:55.326Z,100256.38
2019-03-09T05:51:29.239Z,100257.16
2019-03-09T05:54:02.375Z,100244.59
2019-03-09T05:56:35.325Z,100240.69
2019-03-09T05:59:09.497Z,100230.78
2019-03-09T06:01:42.371Z,100229.17
2019-03-09T06:04:15.279Z,100223.49
2019-03-09T06:06:48.096Z,100218.28
2019-03-09T06:09:23.148Z,100210.29
2019-03-09T06:11:56.071Z,100198.91
2019-03-09T06:14:29.242Z,100197.13
2019-03-09T06:17:02.186Z,100186.89
2019-03-09T06:19:35.029Z,100181.09
2019-03-09T06:22:07.929Z,100170.56
2019-03-09T06:24:40.654Z,100173.34
2019-03-09T06:27:13.643Z,100167.09
2019-03-09T06:29:46.690Z,100159.02
2019-03-09T06:33:13.166Z,100155.50
2019-03-09T06:36:12.110Z,100154.38
2019-03-09T06:38:58.928Z,100148.37
2019-03-09T06:42:19.194Z,100136.73
2019-03-09T06:44:52.062Z,100146.80
2019-03-09T06:47:24.848Z,100151.62
2019-03-09T06:49:57.627Z,100149.70
2019-03-09T06:52:30.362Z,100138.22
2019-03-09T06:55:04.201Z,100123.64
2019-03-09T06:57:36.952Z,100123.43
2019-03-09T07:00:34.596Z,100116.42
2019-03-09T07:03:08.571Z,100117.07
2019-03-09T07:05:41.304Z,100120.74
2019-03-09T07:08:14.068Z,100105.52
2019-03-09T07:10:46.804Z,100100.57
2019-03-09T07:13:19.580Z,100091.57
2019-03-09T07:15:52.331Z,100089.41
2019-03-09T07:18:30.113Z,100082.86
2019-03-09T07:21:03.102Z,100072.16
2019-03-09T07:23:36.000Z,100069.91
2019-03-09T07:26:08.887Z,100049.99
2019-03-09T07:28:41.640Z,100044.48
2019-03-09T07:31:14.586Z,100028.97
2019-03-09T07:33:47.375Z,100037.73
2019-03-09T07:36:20.209Z,100029.38
2019-03-09T07:38:53.047Z,100011.88
2019-03-09T07:41:25.973Z,100017.80
2019-03-09T07:43:58.878Z,100018.48
2019-03-09T07:46:31.824Z,100008.98
2019-03-09T07:49:04.847Z,100001.80
2019-03-09T07:51:37.605Z,100003.66
2019-03-09T07:54:10.427Z,99990.31
2019-03-09T07:56:45.473Z,99986.34
2019-03-09T07:59:18.272Z,99975.50
2019-03-09T08:01:51.033Z,99977.67
2019-03-09T08:04:24.019Z,99969.86
2019-03-09T08:06:56.880Z,99974.28
2019-03-09T08:09:29.690Z,99965.33
2019-03-09T08:12:02.492Z,99949.98
2019-03-09T08:14:36.311Z,99949.98
2019-03-09T08:17:09.209Z,99949.52
2019-03-09T08:19:41.919Z,99942.69
2019-03-09T08:22:14.684Z,99949.72
2019-03-09T08:24:47.504Z,99941.67
2019-03-09T08:27:20.214Z,99940.27
2019-03-09T08:29:53.172Z,99937.91
2019-03-09T08:32:26.313Z,99937.70
2019-03-09T08:34:59.170Z,99939.16
2019-03-09T08:37:32.006Z,99937.47
2019-03-09T08:40:04.805Z,99933.98
2019-03-09T08:42:37.606Z,99919.30
2019-03-09T08:45:11.319Z,99916.93
2019-03-09T08:47:51.520Z,99914.50
2019-03-09T08:50:21.121Z,99913.75
2019-03-09T08:52:53.905Z,99914.06
2019-03-09T08:55:28.415Z,99909.64
2019-03-09T08:58:01.350Z,99910.83
2019-03-09T09:00:35.095Z,99896.80
2019-03-09T09:03:08.030Z,99900.89
2019-03-09T09:05:40.895Z,99894.91
2019-03-09T09:08:13.803Z,99889.48
2019-03-09T09:10:46.840Z,99883.04
2019-03-09T09:13:19.671Z,99890.12
2019-03-09T09:15:52.479Z,99888.54
2019-03-09T09:18:25.616Z,99883.38
2019-03-09T09:20:58.528Z,99883.02
2019-03-09T09:23:32.461Z,99871.50
2019-03-09T09:26:05.236Z,99885.50
2019-03-09T09:28:38.021Z,99877.00
2019-03-09T09:31:10.819Z,99877.06
2019-03-09T09:33:43.678Z,99867.55
2019-03-09T09:36:16.673Z,99872.41
2019-03-09T09:38:49.525Z,99865.48
2019-03-09T09:41:22.393Z,99863.61
2019-03-09T09:43:55.328Z,99858.17
2019-03-09T09:46:39.399Z,99857.32
2019-03-09T09:49:12.244Z,99860.02
2019-03-09T09:51:45.044Z,99857.38
2019-03-09T09:54:17.841Z,99851.27
2019-03-09T09:56:50.737Z,99854.20
2019-03-09T09:59:23.547Z,99848.95
2019-03-09T10:02:05.236Z,99845.00
2019-03-09T10:04:38.051Z,99849.14
2019-03-09T10:07:10.815Z,99847.16
2019-03-09T10:09:43.600Z,99842.48
2019-03-09T10:12:16.329Z,99851.53
2019-03-09T10:14:49.159Z,99845.41
2019-03-09T10:17:21.892Z,99843.16
2019-03-09T10:19:57.424Z,99844.47
2019-03-09T10:22:30.473Z,99830.97
2019-03-09T10:25:06.917Z,99824.81
2019-03-09T10:27:39.824Z,99833.40
2019-03-09T10:30:16.213Z,99819.27
2019-03-09T10:32:49.456Z,99821.78
2019-03-09T10:35:23.628Z,99831.05
2019-03-09T10:37:56.672Z,99837.61
2019-03-09T10:40:29.744Z,99821.70
2019-03-09T10:43:02.625Z,99831.91
2019-03-09T10:45:35.561Z,99826.63
2019-03-09T10:48:08.425Z,99820.19
2019-03-09T10:50:41.395Z,99824.14
2019-03-09T10:53:14.189Z,99808.13
2019-03-09T10:55:47.059Z,99812.27
2019-03-09T10:58:19.629Z,99824.19
2019-03-09T11:00:54.590Z,99813.34
2019-03-09T11:03:27.539Z,99816.34
2019-03-09T11:06:00.357Z,99807.17
2019-03-09T11:08:36.130Z,99802.52
2019-03-09T11:11:09.040Z,99806.25
2019-03-09T11:13:51.418Z,99810.37
2019-03-09T11:16:16.473Z,99801.94
2019-03-09T11:18:49.560Z,99804.91
2019-03-09T11:21:23.648Z,99804.55
2019-03-09T11:23:56.634Z,99811.36
2019-03-09T11:26:32.081Z,99811.41
2019-03-09T11:29:05.089Z,99804.59
2019-03-09T11:31:37.974Z,99801.14
2019-03-09T11:34:10.978Z,99809.00
2019-03-09T11:36:43.634Z,99810.95
2019-03-09T11:39:16.397Z,99800.77
2019-03-09T11:41:49.225Z,99802.24
2019-03-09T11:44:22.039Z,99803.31
2019-03-09T11:46:54.792Z,99800.84
2019-03-09T11:49:27.577Z,99805.95
2019-03-09T11:52:00.380Z,99801.96
2019-03-09T11:54:33.190Z,99801.96
2019-03-09T11:57:05.937Z,99789.48
2019-03-09T11:59:38.854Z,99791.97
2019-03-09T12:02:11.725Z,99795.58
2019-03-09T12:04:47.050Z,99785.84
2019-03-09T12:07:19.003Z,99783.47
2019-03-09T12:09:51.749Z,99785.45
2019-03-09T12:12:24.495Z,99761.21
2019-03-09T12:14:57.365Z,99769.14
2019-03-09T12:17:30.414Z,99764.77
2019-03-09T12:20:03.314Z,99771.23
2019-03-09T12:22:36.182Z,99769.93
2019-03-09T12:25:10.118Z,99775.09
2019-03-09T12:27:43.790Z,99763.76
2019-03-09T12:30:18.101Z,99767.69
2019-03-09T12:32:51.062Z,99771.55
2019-03-09T12:35:23.988Z,99769.95
2019-03-09T12:37:56.971Z,99764.02
2019-03-09T12:40:29.855Z,99753.55
2019-03-09T12:43:05.641Z,99757.95
2019-03-09T12:45:42.749Z,99770.11
2019-03-09T12:48:15.590Z,99771.77
2019-03-09T12:50:48.696Z,99756.88
2019-03-09T12:53:29.467Z,99740.52
2019-03-09T12:56:06.984Z,99744.00
2019-03-09T12:58:39.686Z,99729.26
2019-03-09T13:01:12.720Z,99737.81
2019-03-09T13:03:45.562Z,99717.34
2019-03-09T13:06:21.532Z,99729.53
2019-03-09T13:08:54.329Z,99718.77
2019-03-09T13:11:27.419Z,99735.67
2019-03-09T13:14:00.321Z,99730.83
2019-03-09T13:16:33.299Z,99732.22
2019-03-09T13:19:07.443Z,99749.02
2019-03-09T13:21:40.432Z,99752.63
2019-03-09T13:24:13.463Z,99754.22
2019-03-09T13:26:46.305Z,99758.48
2019-03-09T13:29:19.607Z,99772.52
2019-03-09T13:31:52.710Z,99759.34
2019-03-09T13:34:25.717Z,99763.67
2019-03-09T13:36:58.732Z,99759.20
2019-03-09T13:39:31.608Z,99767.02
2019-03-09T13:42:04.628Z,99772.17
2019-03-09T13:44:37.849Z,99776.39
2019-03-09T13:47:10.781Z,99779.27
2019-03-09T13:49:43.811Z,99782.48
2019-03-09T13:52:17.643Z,99760.36
2019-03-09T13:54:50.736Z,99769.58
2019-03-09T13:57:25.573Z,99777.36
2019-03-09T13:59:59.198Z,99772.06
2019-03-09T14:02:32.258Z,99764.67
2019-03-09T14:05:05.407Z,99780.58
2019-03-09T14:07:38.846Z,99781.52
2019-03-09T14:10:12.904Z,99776.50
2019-03-09T14:12:45.997Z,99785.96
2019-03-09T14:15:23.214Z,99774.46
2019-03-09T14:17:58.668Z,99775.66
2019-03-09T14:20:35.629Z,99778.16
2019-03-09T14:23:09.134Z,99765.49
2019-03-09T14:25:41.986Z,99775.29
2019-03-09T14:28:19.912Z,99768.92
2019-03-09T14:31:01.141Z,99781.36
2019-03-09T14:33:35.545Z,99781.95
2019-03-09T14:36:08.481Z,99768.58
2019-03-09T14:38:44.331Z,99769.30
2019-03-09T14:41:17.208Z,99762.94
2019-03-09T14:43:54.318Z,99768.56
2019-03-09T14:46:28.774Z,99774.64
2019-03-09T14:49:01.881Z,99758.84
2019-03-09T14:51:35.040Z,99755.48
2019-03-09T14:54:08.076Z,99757.90
2019-03-09T14:56:42.215Z,99748.69
2019-03-09T14:59:15.183Z,99741.27
2019-03-09T15:02:03.658Z,99727.52
2019-03-09T15:04:37.644Z,99723.45
2019-03-09T15:07:14.571Z,99723.83
2019-03-09T15:09:47.850Z,99721.41
2019-03-09T15:12:20.852Z,99717.57
2019-03-09T15:14:58.800Z,99714.91
2019-03-09T15:17:32.204Z,99715.94
2019-03-09T15:20:06.906Z,99714.34
2019-03-09T15:22:39.742Z,99710.63
2019-03-09T15:25:15.239Z,99708.33
2019-03-09T15:27:53.249Z,99698.78
2019-03-09T15:30:31.060Z,99700.83
2019-03-09T15:33:06.936Z,99692.09
2019-03-09T15:35:43.404Z,99689.20
2019-03-09T15:38:22.322Z,99685.17
2019-03-09T15:41:06.069Z,99683.25
2019-03-09T15:43:38.906Z,99686.23
2019-03-09T15:46:17.210Z,99689.84
2019-03-09T15:48:54.544Z,99682.66
2019-03-09T15:51:27.604Z,99687.30
2019-03-09T15:54:00.517Z,99678.19
2019-03-09T15:56:33.403Z,99675.95
2019-03-09T15:59:06.449Z,99677.97
2019-03-09T16:01:39.375Z,99673.07
2019-03-09T16:04:12.345Z,99661.34
2019-03-09T16:06:45.172Z,99667.19
2019-03-09T16:09:18.154Z,99671.70
2019-03-09T16:11:50.983Z,99680.28
2019-03-09T16:14:24.022Z,99681.84
2019-03-09T16:16:56.887Z,99672.77
2019-03-09T16:19:30.845Z,99662.59
2019-03-09T16:22:04.030Z,99661.53
2019-03-09T16:24:37.056Z,99654.55
2019-03-09T16:27:29.555Z,99656.69
2019-03-09T16:30:07.111Z,99659.14
2019-03-09T16:32:41.507Z,99650.20
2019-03-09T16:35:14.745Z,99647.20
2019-03-09T16:37:55.104Z,99637.02
2019-03-09T16:41:12.301Z,99635.56
2019-03-09T16:43:58.817Z,99642.67
2019-03-09T16:46:39.776Z,99637.52
2019-03-09T16:49:14.305Z,99632.70
2019-03-09T16:51:47.618Z,99640.11
2019-03-09T16:54:20.541Z,99634.59
2019-03-09T16:56:53.364Z,99616.45
2019-03-09T16:59:26.723Z,99616.45
2019-03-09T17:01:59.587Z,99609.78
2019-03-09T17:04:32.512Z,99592.72
2019-03-09T17:07:09.753Z,99602.02
2019-03-09T17:09:44.554Z,99621.01
2019-03-09T17:12:21.324Z,99618.50
2019-03-09T17:14:54.445Z,99658.14
2019-03-09T17:17:27.495Z,99663.69
2019-03-09T17:20:01.495Z,99727.86
2019-03-09T17:22:37.299Z,99669.05
2019-03-09T17:25:15.318Z,99655.63
2019-03-09T17:27:51.841Z,99657.47
2019-03-09T17:30:38.756Z,99651.19
2019-03-09T17:33:15.457Z,99657.76
2019-03-09T17:35:49.711Z,99658.27
2019-03-09T17:38:28.812Z,99658.27
2019-03-09T17:41:03.138Z,99662.23
2019-03-09T17:43:37.963Z,99655.53
2019-03-09T17:46:13.203Z,99643.28
2019-03-09T17:48:48.511Z,99644.30
2019-03-09T17:51:21.819Z,99644.30
2019-03-09T17:53:55.143Z,99637.59
2019-03-09T17:56:31.277Z,99637.59
2019-03-09T17:59:07.044Z,99640.84
2019-03-09T18:01:45.510Z,99639.92
2019-03-09T18:04:18.816Z,99642.02
2019-03-09T18:06:54.301Z,99649.66
2019-03-09T18:09:28.796Z,99674.55
2019-03-09T18:12:03.080Z,99660.66
2019-03-09T18:14:36.897Z,99675.06
2019-03-09T18:17:09.775Z,99624.77
2019-03-09T18:19:43.894Z,99624.77
2019-03-09T18:22:16.928Z,99630.30
2019-03-09T18:24:53.719Z,99659.66
2019-03-09T18:27:26.915Z,99670.18
2019-03-09T18:30:00.026Z,99635.13
2019-03-09T18:32:34.173Z,99635.13
2019-03-09T18:35:07.432Z,99652.19
2019-03-09T18:37:41.917Z,99633.80
2019-03-09T18:40:14.999Z,99642.41
2019-03-09T18:42:47.890Z,99642.41
2019-03-09T18:45:20.955Z,99604.13
2019-03-09T18:47:53.934Z,99602.08
2019-03-09T18:50:27.273Z,99602.87
2019-03-09T18:53:00.953Z,99571.77
2019-03-09T18:55:34.034Z,99560.48
2019-03-09T18:58:08.714Z,99577.27
2019-03-09T19:00:41.621Z,99602.09
2019-03-09T19:03:14.490Z,99588.28
2019-03-09T19:05:50.308Z,99590.91
2019-03-09T19:08:23.480Z,99587.13
2019-03-09T19:10:56.489Z,99596.31
2019-03-09T19:13:30.173Z,99587.00
2019-03-09T19:16:03.527Z,99584.20
2019-03-09T19:18:36.431Z,99581.33
2019-03-09T19:21:09.660Z,99572.56
2019-03-09T19:23:51.804Z,99564.73
2019-03-09T19:26:24.919Z,99560.89
2019-03-09T19:28:57.875Z,99552.05
2019-03-09T19:31:34.320Z,99542.25
2019-03-09T19:34:07.849Z,99538.32
2019-03-09T19:36:48.784Z,99518.28
2019-03-09T19:39:23.302Z,99498.63
2019-03-09T19:42:44.435Z,99484.25
2019-03-09T19:45:17.836Z,99479.50
2019-03-09T19:47:50.826Z,99489.76
2019-03-09T19:50:23.795Z,99487.81
2019-03-09T19:52:59.118Z,99480.45
2019-03-09T19:55:32.763Z,99472.13
2019-03-09T19:58:06.638Z,99472.52
2019-03-09T20:00:39.748Z,99478.30
2019-03-09T20:03:14.320Z,99487.89
2019-03-09T20:05:50.324Z,99509.20
2019-03-09T20:08:52.291Z,99504.70
2019-03-09T20:11:36.219Z,99487.52
2019-03-09T20:14:09.282Z,99464.03
2019-03-09T20:16:52.556Z,99449.30
2019-03-09T20:19:25.544Z,99447.72
2019-03-09T20:21:58.328Z,99449.12
2019-03-09T20:24:31.415Z,99417.45
2019-03-09T20:27:04.421Z,99404.50
2019-03-09T20:29:37.631Z,99392.28
2019-03-09T20:32:10.593Z,99398.54
2019-03-09T20:34:43.514Z,99394.08
2019-03-09T20:37:16.507Z,99397.98
2019-03-09T20:39:49.692Z,99387.91
2019-03-09T20:42:23.328Z,99388.01
2019-03-09T20:44:56.399Z,99380.84
2019-03-09T20:47:29.479Z,99373.09
2019-03-09T20:50:02.620Z,99366.96
2019-03-09T20:52:42.273Z,99362.66
2019-03-09T20:55:16.970Z,99364.81
2019-03-09T20:57:50.546Z,99357.28
2019-03-09T21:00:32.081Z,99346.76
2019-03-09T21:03:22.686Z,99357.09
2019-03-09T21:06:13.153Z,99361.45
2019-03-09T21:08:58.330Z,99358.39
2019-03-09T21:11:40.413Z,99364.56
2019-03-09T21:14:13.479Z,99357.68
2019-03-09T21:16:47.167Z,99364.20
2019-03-09T21:19:20.532Z,99352.08
2019-03-09T21:21:54.116Z,99358.50
2019-03-09T21:24:33.653Z,99355.83
2019-03-09T21:27:07.090Z,99354.88
2019-03-09T21:29:40.426Z,99356.02
2019-03-09T21:32:15.193Z,99365.31
2019-03-09T21:34:53.225Z,99352.86
2019-03-09T21:37:38.473Z,99381.53
2019-03-09T21:40:24.383Z,99391.77
2019-03-09T21:43:33.964Z,99393.20
2019-03-09T21:46:07.108Z,99393.49
2019-03-09T21:48:40.261Z,99400.66
2019-03-09T21:54:17.897Z,99408.88
2019-03-09T21:57:01.761Z,99400.66
2019-03-09T21:59:40.320Z,99404.48
2019-03-09T22:02:28.806Z,99404.12
2019-03-09T22:05:20.013Z,99409.70
2019-03-09T22:08:03.280Z,99411.39
2019-03-09T22:10:37.668Z,99408.39
2019-03-09T22:13:12.776Z,99395.84
2019-03-09T22:15:46.617Z,99402.81
2019-03-09T22:18:25.356Z,99396.75
2019-03-09T22:21:00.014Z,99406.83
2019-03-09T22:23:43.551Z,99403.38
2019-03-09T22:26:08.838Z,99403.83
2019-03-09T22:28:42.181Z,99400.77
2019-03-09T22:31:18.977Z,99410.25
2019-03-09T22:33:53.504Z,99415.95
2019-03-09T22:36:27.961Z,99422.94
2019-03-09T22:39:05.097Z,99423.30
2019-03-09T22:41:49.883Z,99430.76
2019-03-09T22:44:27.473Z,99436.43
2019-03-09T22:47:11.944Z,99455.89
2019-03-09T22:49:43.743Z,99452.53
2019-03-09T22:52:22.454Z,99475.85
2019-03-09T22:55:07.403Z,99477.16
2019-03-09T22:57:42.312Z,99473.99
2019-03-09T23:00:22.538Z,99484.03
2019-03-09T23:02:57.584Z,99499.98
2019-03-09T23:05:31.270Z,99516.39
2019-03-09T23:08:05.051Z,99498.77
2019-03-09T23:10:39.253Z,99517.12
2019-03-09T23:13:13.013Z,99522.34
2019-03-09T23:15:47.092Z,99540.12
2019-03-09T23:18:20.274Z,99540.88
2019-03-09T23:20:53.804Z,99567.71
2019-03-09T23:23:28.564Z,99584.57
2019-03-09T23:26:10.202Z,99601.58
2019-03-09T23:29:10.520Z,99621.41
2019-03-09T23:31:44.787Z,99665.86
2019-03-09T23:34:18.654Z,99659.80
2019-03-09T23:36:59.770Z,99681.95
2019-03-09T23:39:37.468Z,99692.36
2019-03-09T23:42:14.157Z,99715.26
2019-03-09T23:44:56.287Z,99719.08
2019-03-09T23:47:33.330Z,99743.09
2019-03-09T23:50:12.923Z,99738.36
2019-03-09T23:52:55.321Z,99743.98
2019-03-09T23:55:29.385Z,99768.00
2019-03-09T23:58:06.309Z,99765.30
